Time;durP1;ratioP1;P1;durP2;ratioP2;P2;SDS_P1;SDS_P2;PMS_P1;PMS_P2;Temp;Humidity;BMP_temperature;BMP_pressure;BME280_temperature;BME280_humidity;BME280_pressure;Samples;Min_cycle;Max_cycle;Signal;HPM_P1;HPM_P2
2021/08/16 00:00:22;;;;;;;5.82;3.80;;;17.10;99.90;;;;;;4962483;28;20035;-52
2021/08/16 00:02:48;;;;;;;3.88;3.05;;;17.00;99.90;;;;;;4958421;28;20032;-53
2021/08/16 00:05:14;;;;;;;6.88;4.20;;;17.00;99.90;;;;;;4963523;28;20030;-53
2021/08/16 00:07:44;;;;;;;7.20;4.20;;;17.00;99.90;;;;;;4958490;28;20034;-55
2021/08/16 00:10:14;;;;;;;4.32;3.85;;;17.00;99.90;;;;;;4964940;28;20038;-52
2021/08/16 00:12:39;;;;;;;4.35;3.25;;;16.90;99.90;;;;;;4958172;28;20034;-52
2021/08/16 00:15:06;;;;;;;7.75;4.22;;;17.00;99.90;;;;;;4958324;28;20023;-53
2021/08/16 00:17:31;;;;;;;7.70;3.63;;;16.90;99.90;;;;;;4961061;28;20016;-51
2021/08/16 00:19:57;;;;;;;10.02;3.75;;;16.90;99.90;;;;;;4958757;28;20034;-54
2021/08/16 00:22:23;;;;;;;7.75;3.85;;;16.90;99.90;;;;;;4968892;28;20109;-53
2021/08/16 00:24:49;;;;;;;4.45;3.33;;;16.90;99.90;;;;;;4958592;28;20258;-53
2021/08/16 00:27:15;;;;;;;5.43;3.70;;;16.80;99.90;;;;;;4958160;28;20023;-53
2021/08/16 00:29:41;;;;;;;5.60;3.25;;;16.80;99.90;;;;;;4957740;28;20106;-55
2021/08/16 00:32:07;;;;;;;6.25;4.03;;;16.80;99.90;;;;;;4959072;28;20121;-51
2021/08/16 00:34:32;;;;;;;4.90;3.55;;;16.70;99.90;;;;;;4957564;28;20055;-53
2021/08/16 00:36:58;;;;;;;7.10;3.25;;;16.70;99.90;;;;;;4958678;28;20397;-53
2021/08/16 00:39:24;;;;;;;4.18;3.10;;;16.70;99.90;;;;;;4963840;28;20042;-54
2021/08/16 00:41:49;;;;;;;5.88;3.53;;;16.60;99.90;;;;;;4959878;28;20037;-56
2021/08/16 00:44:16;;;;;;;5.65;3.78;;;16.60;99.90;;;;;;4960746;28;20445;-56
2021/08/16 00:46:42;;;;;;;5.20;3.92;;;16.60;99.90;;;;;;4961199;28;20658;-56
2021/08/16 00:49:07;;;;;;;5.28;3.55;;;16.60;99.90;;;;;;4960058;28;20063;-55
2021/08/16 00:51:36;;;;;;;5.75;3.85;;;16.60;99.90;;;;;;4960919;28;20080;-56
2021/08/16 00:54:05;;;;;;;6.18;4.57;;;16.60;99.90;;;;;;4961106;28;20635;-53
2021/08/16 00:56:32;;;;;;;6.82;4.80;;;16.60;99.90;;;;;;4960558;28;20062;-54
2021/08/16 00:58:59;;;;;;;4.85;3.50;;;16.50;99.90;;;;;;4957889;28;20047;-55
2021/08/16 01:01:28;;;;;;;4.82;3.05;;;16.50;99.90;;;;;;4959020;28;20106;-54
2021/08/16 01:03:53;;;;;;;4.20;3.45;;;16.50;99.90;;;;;;4958130;28;20397;-55
2021/08/16 01:06:20;;;;;;;5.78;3.40;;;16.40;99.90;;;;;;4960803;28;20027;-54
2021/08/16 01:08:47;;;;;;;5.60;3.65;;;16.40;99.90;;;;;;4963427;28;20095;-55
2021/08/16 01:11:13;;;;;;;6.90;4.40;;;16.40;99.90;;;;;;4960729;28;20031;-55
2021/08/16 01:13:39;;;;;;;5.32;3.72;;;16.40;99.90;;;;;;4961250;28;20027;-53
2021/08/16 01:16:05;;;;;;;6.55;3.78;;;16.40;99.90;;;;;;4959130;28;20082;-52
2021/08/16 01:18:33;;;;;;;7.20;4.05;;;16.40;99.90;;;;;;4960918;28;20073;-54
2021/08/16 01:21:04;;;;;;;5.82;3.65;;;16.30;99.90;;;;;;4959670;28;20043;-54
2021/08/16 01:23:30;;;;;;;7.75;4.07;;;16.30;99.90;;;;;;4960811;28;20057;-54
2021/08/16 01:25:56;;;;;;;4.28;3.70;;;16.20;99.90;;;;;;4961871;28;20066;-55
2021/08/16 01:28:22;;;;;;;8.50;3.58;;;16.30;99.90;;;;;;4956792;28;20053;-55
2021/08/16 01:30:57;;;;;;;5.50;3.88;;;16.20;99.90;;;;;;4964462;28;20046;-55
2021/08/16 01:33:23;;;;;;;5.20;3.90;;;16.20;99.90;;;;;;4957907;28;20482;-53
2021/08/16 01:35:48;;;;;;;7.03;4.00;;;16.20;99.90;;;;;;4958921;28;20085;-51
2021/08/16 01:38:17;;;;;;;5.25;3.63;;;16.20;99.90;;;;;;4963861;28;20026;-52
2021/08/16 01:40:43;;;;;;;5.72;4.05;;;16.10;99.90;;;;;;4964214;28;20453;-54
2021/08/16 01:43:08;;;;;;;5.00;3.88;;;16.10;99.90;;;;;;4961736;28;20027;-51
2021/08/16 01:45:34;;;;;;;5.03;3.65;;;16.00;99.90;;;;;;4963427;28;20022;-54
2021/08/16 01:47:59;;;;;;;5.05;3.65;;;16.00;99.90;;;;;;4961396;28;20109;-54
2021/08/16 01:50:25;;;;;;;6.63;3.88;;;15.90;99.90;;;;;;4962336;28;20023;-54
2021/08/16 01:52:51;;;;;;;6.63;4.28;;;15.90;99.90;;;;;;4963079;28;20023;-52
2021/08/16 01:55:17;;;;;;;4.57;3.80;;;15.90;99.90;;;;;;4963380;28;20478;-53
2021/08/16 01:57:42;;;;;;;7.50;4.40;;;15.80;99.90;;;;;;4963299;28;20030;-51
2021/08/16 02:00:09;;;;;;;4.22;3.83;;;15.80;99.90;;;;;;4961827;28;20028;-52
2021/08/16 02:02:34;;;;;;;8.05;3.63;;;15.80;99.90;;;;;;4963666;28;20023;-51
2021/08/16 02:05:00;;;;;;;8.32;3.78;;;15.70;99.90;;;;;;4963110;28;20540;-53
2021/08/16 02:07:25;;;;;;;4.43;3.45;;;15.60;99.90;;;;;;4963670;28;20078;-55
2021/08/16 02:09:51;;;;;;;7.25;4.07;;;15.60;99.90;;;;;;4963327;28;20023;-52
2021/08/16 02:12:17;;;;;;;4.35;3.78;;;15.60;99.90;;;;;;4961499;28;20027;-53
2021/08/16 02:14:42;;;;;;;6.25;3.80;;;15.50;99.90;;;;;;4963682;28;20018;-52
2021/08/16 02:17:08;;;;;;;4.90;3.50;;;15.50;99.90;;;;;;4962004;28;20031;-51
2021/08/16 02:19:33;;;;;;;4.43;3.17;;;15.50;99.90;;;;;;4963550;28;20059;-53
2021/08/16 02:21:59;;;;;;;6.53;4.30;;;15.50;99.90;;;;;;4962740;28;20070;-53
2021/08/16 02:24:25;;;;;;;4.93;3.58;;;15.40;99.90;;;;;;4963134;28;20035;-53
2021/08/16 02:26:50;;;;;;;5.50;3.63;;;15.40;99.90;;;;;;4963563;28;20485;-51
2021/08/16 02:29:16;;;;;;;5.53;4.10;;;15.40;99.90;;;;;;4967994;28;20049;-53
2021/08/16 02:31:41;;;;;;;5.03;3.95;;;15.40;99.90;;;;;;4962929;28;20034;-54
2021/08/16 02:34:07;;;;;;;5.03;4.18;;;15.30;99.90;;;;;;4961368;28;20528;-55
2021/08/16 02:36:33;;;;;;;10.48;4.25;;;15.30;99.90;;;;;;4961274;28;20018;-55
2021/08/16 02:38:59;;;;;;;6.05;4.13;;;15.30;99.90;;;;;;4961838;28;20049;-51
2021/08/16 02:41:25;;;;;;;6.30;3.75;;;15.30;99.90;;;;;;4962477;28;20027;-53
2021/08/16 02:43:50;;;;;;;7.00;4.10;;;15.30;99.90;;;;;;4963082;28;20027;-51
2021/08/16 02:46:16;;;;;;;6.00;3.88;;;15.30;99.90;;;;;;4961476;28;20718;-55
2021/08/16 02:48:41;;;;;;;7.25;4.20;;;15.30;99.90;;;;;;4961387;28;20058;-52
2021/08/16 02:51:07;;;;;;;5.80;4.10;;;15.30;99.90;;;;;;4962308;28;20130;-54
2021/08/16 02:53:33;;;;;;;7.80;3.92;;;15.30;99.90;;;;;;4961526;28;20015;-54
2021/08/16 02:55:58;;;;;;;8.63;4.43;;;15.30;99.90;;;;;;4960134;28;20412;-53
2021/08/16 02:58:24;;;;;;;5.00;4.00;;;15.30;99.90;;;;;;4962190;28;20077;-53
2021/08/16 03:00:50;;;;;;;7.07;5.28;;;15.30;99.90;;;;;;4962444;28;20034;-54
2021/08/16 03:03:15;;;;;;;6.30;4.10;;;15.30;99.90;;;;;;4961268;28;20043;-52
2021/08/16 03:05:41;;;;;;;9.25;4.57;;;15.30;99.90;;;;;;4962416;28;20031;-52
2021/08/16 03:08:07;;;;;;;7.50;4.78;;;15.30;99.90;;;;;;4961109;28;20057;-54
2021/08/16 03:10:34;;;;;;;7.05;4.40;;;15.30;99.90;;;;;;4962419;28;20555;-54
2021/08/16 03:13:00;;;;;;;5.93;4.05;;;15.40;99.90;;;;;;4959840;28;20035;-52
2021/08/16 03:15:26;;;;;;;7.78;4.40;;;15.40;99.90;;;;;;4960524;28;20022;-52
2021/08/16 03:17:52;;;;;;;6.47;4.10;;;15.40;99.90;;;;;;4962521;28;20053;-52
2021/08/16 03:20:18;;;;;;;7.38;4.53;;;15.40;99.90;;;;;;4961386;28;20401;-51
2021/08/16 03:22:43;;;;;;;5.65;4.45;;;15.40;99.90;;;;;;4962344;28;20581;-51
2021/08/16 03:25:11;;;;;;;7.68;4.60;;;15.40;99.90;;;;;;4961493;28;20481;-52
2021/08/16 03:27:36;;;;;;;10.20;4.53;;;15.50;99.90;;;;;;4960896;28;20034;-51
2021/08/16 03:30:08;;;;;;;7.35;4.97;;;15.50;99.90;;;;;;4963667;28;20046;-53
2021/08/16 03:32:34;;;;;;;7.72;4.28;;;15.50;99.90;;;;;;4961027;28;20015;-50
2021/08/16 03:35:00;;;;;;;7.15;4.22;;;15.50;99.90;;;;;;4960468;28;20023;-51
2021/08/16 03:37:32;;;;;;;6.07;4.18;;;15.50;99.90;;;;;;4958378;28;20501;-51
2021/08/16 03:39:58;;;;;;;6.75;4.55;;;15.50;99.90;;;;;;4958315;28;20023;-51
2021/08/16 03:42:24;;;;;;;5.82;4.05;;;15.60;99.90;;;;;;4964264;28;20042;-50
2021/08/16 03:44:49;;;;;;;6.35;4.68;;;15.60;99.90;;;;;;4958784;28;20498;-50
2021/08/16 03:47:15;;;;;;;11.57;5.30;;;15.60;99.90;;;;;;4965641;28;20023;-50
2021/08/16 03:49:40;;;;;;;8.27;4.38;;;15.60;99.90;;;;;;4957720;28;20038;-51
2021/08/16 03:52:06;;;;;;;11.73;4.97;;;15.60;99.90;;;;;;4966083;28;20553;-47
2021/08/16 03:54:32;;;;;;;11.80;5.85;;;15.60;99.90;;;;;;4957930;28;20020;-49
2021/08/16 03:56:57;;;;;;;8.20;5.60;;;15.60;99.90;;;;;;4957862;28;20102;-48
2021/08/16 03:59:23;;;;;;;7.63;5.40;;;15.60;99.90;;;;;;4963825;28;20482;-49
2021/08/16 04:01:48;;;;;;;10.30;5.95;;;15.60;99.90;;;;;;4957773;28;20486;-50
2021/08/16 04:04:14;;;;;;;8.15;5.95;;;15.60;99.90;;;;;;4965606;28;20034;-48
2021/08/16 04:06:40;;;;;;;7.57;5.63;;;15.60;99.90;;;;;;4958189;28;20019;-50
2021/08/16 04:09:06;;;;;;;7.50;5.03;;;15.60;99.90;;;;;;4966141;28;20440;-48
2021/08/16 04:11:31;;;;;;;9.27;7.00;;;15.70;99.90;;;;;;4958426;28;20055;-50
2021/08/16 04:13:57;;;;;;;9.07;6.15;;;15.70;99.90;;;;;;4959040;28;20481;-52
2021/08/16 04:16:23;;;;;;;8.57;6.25;;;15.70;99.90;;;;;;4963483;28;20031;-51
2021/08/16 04:18:48;;;;;;;11.35;6.22;;;15.70;99.90;;;;;;4958430;28;20019;-50
2021/08/16 04:21:14;;;;;;;8.60;6.38;;;15.70;99.90;;;;;;4965596;28;20031;-50
2021/08/16 04:23:40;;;;;;;13.57;7.20;;;15.70;99.90;;;;;;4958307;28;20062;-49
2021/08/16 04:26:05;;;;;;;8.30;6.05;;;15.70;99.90;;;;;;4965545;28;20038;-51
2021/08/16 04:28:31;;;;;;;10.35;6.28;;;15.80;99.90;;;;;;4959643;28;20413;-51
2021/08/16 04:30:56;;;;;;;10.52;6.47;;;15.70;99.90;;;;;;4987412;23;20428;-49
2021/08/16 04:33:24;;;;;;;10.02;6.82;;;15.70;99.90;;;;;;4965036;28;20467;-52
2021/08/16 04:35:51;;;;;;;10.23;7.25;;;15.80;99.90;;;;;;4967442;28;20019;-49
2021/08/16 04:38:19;;;;;;;11.43;7.57;;;15.80;99.90;;;;;;4966089;28;20046;-51
2021/08/16 04:40:46;;;;;;;13.57;7.25;;;15.80;99.90;;;;;;4966679;28;20034;-49
2021/08/16 04:43:12;;;;;;;12.63;7.05;;;15.80;99.90;;;;;;4961026;28;20026;-49
2021/08/16 04:45:37;;;;;;;10.95;7.25;;;15.80;99.90;;;;;;4960304;28;20097;-53
2021/08/16 04:48:03;;;;;;;11.52;7.38;;;15.80;99.90;;;;;;4958900;28;20030;-49
2021/08/16 04:50:29;;;;;;;13.27;7.90;;;15.90;99.90;;;;;;4961126;28;20052;-49
2021/08/16 04:52:54;;;;;;;10.82;7.85;;;15.90;99.90;;;;;;4960805;28;20435;-49
2021/08/16 04:55:20;;;;;;;13.30;7.97;;;15.90;99.90;;;;;;4961601;28;20093;-51
2021/08/16 04:57:45;;;;;;;12.88;8.45;;;15.90;99.90;;;;;;4960173;28;20026;-52
2021/08/16 05:00:14;;;;;;;12.82;7.97;;;15.90;99.90;;;;;;4961329;28;20023;-51
2021/08/16 05:02:40;;;;;;;11.30;8.32;;;15.90;99.90;;;;;;4964793;28;20027;-52
2021/08/16 05:05:11;;;;;;;12.55;8.30;;;15.90;99.90;;;;;;4963259;28;20086;-51
2021/08/16 05:07:37;;;;;;;13.20;9.07;;;15.90;99.90;;;;;;4963571;28;20106;-50
2021/08/16 05:10:07;;;;;;;14.02;9.00;;;15.90;99.90;;;;;;4964514;28;20071;-49
2021/08/16 05:12:34;;;;;;;13.98;9.23;;;15.90;99.90;;;;;;4964694;28;20133;-48
2021/08/16 05:15:00;;;;;;;15.13;9.38;;;15.90;99.90;;;;;;4962230;28;20102;-51
2021/08/16 05:17:26;;;;;;;14.82;8.70;;;15.90;99.90;;;;;;4964858;28;20642;-51
2021/08/16 05:19:51;;;;;;;14.07;9.90;;;15.90;99.90;;;;;;4964306;28;20011;-49
2021/08/16 05:22:17;;;;;;;15.32;9.88;;;15.90;99.90;;;;;;4965107;28;20030;-52
2021/08/16 05:24:43;;;;;;;13.02;9.70;;;15.90;99.90;;;;;;4964401;28;20023;-52
2021/08/16 05:27:08;;;;;;;15.07;9.35;;;16.00;99.90;;;;;;4964120;28;20319;-48
2021/08/16 05:29:34;;;;;;;14.48;10.25;;;16.00;99.90;;;;;;4967230;28;20026;-48
2021/08/16 05:32:00;;;;;;;16.30;10.77;;;16.00;99.90;;;;;;4956214;28;20031;-50
2021/08/16 05:34:25;;;;;;;13.80;10.57;;;16.00;99.90;;;;;;4964167;28;20023;-49
2021/08/16 05:36:51;;;;;;;19.40;11.38;;;16.00;99.90;;;;;;4963817;28;20026;-51
2021/08/16 05:39:16;;;;;;;16.40;9.93;;;16.00;99.90;;;;;;4961122;28;20417;-49
2021/08/16 05:41:42;;;;;;;16.17;10.07;;;16.00;99.90;;;;;;4965398;28;20146;-50
2021/08/16 05:44:07;;;;;;;13.63;9.35;;;16.10;99.90;;;;;;4961667;28;20033;-49
2021/08/16 05:46:33;;;;;;;14.45;9.05;;;16.00;99.90;;;;;;4965279;28;20374;-47
2021/08/16 05:48:59;;;;;;;12.85;9.23;;;16.00;99.90;;;;;;4963568;28;20041;-49
2021/08/16 05:51:24;;;;;;;13.68;8.95;;;16.10;99.90;;;;;;4964840;28;20023;-50
2021/08/16 05:53:50;;;;;;;15.07;9.40;;;16.10;99.90;;;;;;4962478;28;20546;-50
2021/08/16 05:56:15;;;;;;;18.15;9.18;;;16.10;99.90;;;;;;4959192;28;20019;-52
2021/08/16 05:58:42;;;;;;;13.75;8.77;;;16.10;99.90;;;;;;4965409;28;20687;-51
2021/08/16 06:01:08;;;;;;;14.57;9.27;;;16.10;99.90;;;;;;4962075;28;20031;-50
2021/08/16 06:03:34;;;;;;;14.57;9.40;;;16.10;99.90;;;;;;4965579;28;20041;-49
2021/08/16 06:05:59;;;;;;;14.43;9.52;;;16.10;99.90;;;;;;4961078;28;20042;-51
2021/08/16 06:08:25;;;;;;;13.38;9.48;;;16.20;99.90;;;;;;4963213;28;20074;-49
2021/08/16 06:10:50;;;;;;;12.23;8.85;;;16.20;99.90;;;;;;4963480;28;20071;-49
2021/08/16 06:13:16;;;;;;;16.85;8.52;;;16.20;99.90;;;;;;4960102;28;20027;-47
2021/08/16 06:15:42;;;;;;;13.65;9.20;;;16.20;99.90;;;;;;4963539;28;20125;-48
2021/08/16 06:18:07;;;;;;;20.98;9.32;;;16.30;99.90;;;;;;4961343;28;20106;-51
2021/08/16 06:20:33;;;;;;;11.15;6.97;;;16.30;99.90;;;;;;4964865;28;20029;-52
2021/08/16 06:22:58;;;;;;;14.15;8.40;;;16.30;99.90;;;;;;4962769;28;20113;-52
2021/08/16 06:25:24;;;;;;;10.70;7.75;;;16.30;99.90;;;;;;4963975;28;20026;-49
2021/08/16 06:27:50;;;;;;;10.77;7.97;;;16.30;99.90;;;;;;4962262;28;20456;-48
2021/08/16 06:30:15;;;;;;;13.73;7.78;;;16.30;99.90;;;;;;4961324;28;20533;-50
2021/08/16 06:32:41;;;;;;;19.75;8.55;;;16.30;99.90;;;;;;4964939;28;20031;-52
2021/08/16 06:35:07;;;;;;;13.52;8.35;;;16.30;99.90;;;;;;4960754;28;20393;-48
2021/08/16 06:37:33;;;;;;;9.02;7.25;;;16.30;99.90;;;;;;4959850;28;20019;-48
2021/08/16 06:39:58;;;;;;;15.55;7.63;;;16.30;99.90;;;;;;4960821;28;20028;-49
2021/08/16 06:42:24;;;;;;;15.38;8.10;;;16.30;99.90;;;;;;4964713;28;20035;-50
2021/08/16 06:44:50;;;;;;;16.13;8.38;;;16.40;99.90;;;;;;4959496;28;20023;-52
2021/08/16 06:47:15;;;;;;;9.40;6.82;;;16.40;99.90;;;;;;4965380;28;20023;-49
2021/08/16 06:49:41;;;;;;;13.95;8.40;;;16.40;99.90;;;;;;4956989;28;20031;-51
2021/08/16 06:52:07;;;;;;;13.07;7.72;;;16.50;99.90;;;;;;4935065;28;20035;-47
2021/08/16 06:54:33;;;;;;;11.75;7.63;;;16.50;99.90;;;;;;4934270;28;20063;-51
2021/08/16 06:57:00;;;;;;;15.65;8.43;;;16.50;99.90;;;;;;4943297;28;20023;-49
2021/08/16 06:59:26;;;;;;;16.85;8.45;;;16.60;99.90;;;;;;4961324;28;20023;-49
2021/08/16 07:01:52;;;;;;;13.27;8.00;;;16.60;99.90;;;;;;4957933;28;20027;-48
2021/08/16 07:04:18;;;;;;;10.00;7.00;;;16.60;99.90;;;;;;4962152;28;20019;-48
2021/08/16 07:06:44;;;;;;;12.57;8.20;;;16.60;99.90;;;;;;4959642;28;20046;-54
2021/08/16 07:09:10;;;;;;;11.85;7.53;;;16.60;99.90;;;;;;4963333;28;20393;-48
2021/08/16 07:11:35;;;;;;;12.30;7.35;;;16.60;99.90;;;;;;4958062;28;20078;-48
2021/08/16 07:14:01;;;;;;;12.07;7.57;;;16.60;99.90;;;;;;4957793;28;20102;-48
2021/08/16 07:16:27;;;;;;;11.35;7.10;;;16.60;99.90;;;;;;4960647;28;20019;-48
2021/08/16 07:18:52;;;;;;;15.48;8.07;;;16.70;99.90;;;;;;4959251;28;20042;-52
2021/08/16 07:21:18;;;;;;;12.32;7.15;;;16.60;99.90;;;;;;4962726;28;20023;-48
2021/08/16 07:23:43;;;;;;;15.05;7.05;;;16.70;99.90;;;;;;4959108;28;20078;-48
2021/08/16 07:26:09;;;;;;;12.75;7.43;;;16.60;99.90;;;;;;4964040;28;20034;-50
2021/08/16 07:28:36;;;;;;;9.93;7.07;;;16.70;99.90;;;;;;4958948;28;20046;-50
2021/08/16 07:31:03;;;;;;;13.45;6.85;;;16.60;99.90;;;;;;4957263;28;20039;-49
2021/08/16 07:33:28;;;;;;;12.57;7.53;;;16.70;99.90;;;;;;4960381;28;20019;-50
2021/08/16 07:35:54;;;;;;;7.75;6.63;;;16.70;99.90;;;;;;4958532;28;20082;-49
2021/08/16 07:38:20;;;;;;;10.50;6.68;;;16.70;99.90;;;;;;4962103;28;20027;-50
2021/08/16 07:40:46;;;;;;;11.43;6.90;;;16.70;99.90;;;;;;4961211;28;20094;-49
2021/08/16 07:43:12;;;;;;;10.48;6.75;;;16.80;99.90;;;;;;4959823;28;20811;-48
2021/08/16 07:45:38;;;;;;;13.07;6.85;;;16.80;99.90;;;;;;4961658;28;20023;-49
2021/08/16 07:48:05;;;;;;;14.80;6.90;;;16.80;99.90;;;;;;4961170;28;20035;-47
2021/08/16 07:50:31;;;;;;;10.40;6.43;;;16.80;99.90;;;;;;4960732;28;20495;-47
2021/08/16 07:52:58;;;;;;;8.75;4.75;;;16.70;99.90;;;;;;4961815;28;20493;-47
2021/08/16 07:55:24;;;;;;;11.75;4.45;;;16.60;99.90;;;;;;4961603;28;20019;-48
2021/08/16 07:57:50;;;;;;;9.18;5.07;;;16.50;99.90;;;;;;4960221;28;20023;-52
2021/08/16 08:00:15;;;;;;;7.15;4.57;;;16.50;99.90;;;;;;4961743;28;20025;-48
2021/08/16 08:02:46;;;;;;;11.68;5.60;;;16.50;99.90;;;;;;4962066;28;20154;-51
2021/08/16 08:05:18;;;;;;;8.75;6.53;;;16.50;99.90;;;;;;4960155;28;20547;-47
2021/08/16 08:07:44;;;;;;;13.15;6.47;;;16.50;99.90;;;;;;4962263;28;20158;-52
2021/08/16 08:10:11;;;;;;;7.53;4.32;;;16.40;99.90;;;;;;4961231;28;20489;-49
2021/08/16 08:12:37;;;;;;;6.97;4.43;;;16.40;99.90;;;;;;4954689;28;20558;-50
2021/08/16 08:15:04;;;;;;;7.63;3.85;;;16.30;99.90;;;;;;4944837;28;20016;-53
2021/08/16 08:17:30;;;;;;;5.20;2.83;;;16.30;99.90;;;;;;4936610;28;20107;-50
2021/08/16 08:19:56;;;;;;;5.88;2.45;;;16.20;99.90;;;;;;4952635;28;20488;-51
2021/08/16 08:22:23;;;;;;;4.47;2.33;;;16.20;99.90;;;;;;4960452;28;20648;-48
2021/08/16 08:24:49;;;;;;;3.95;2.40;;;16.10;99.90;;;;;;4952474;28;20034;-50
2021/08/16 08:27:14;;;;;;;4.07;2.25;;;16.20;99.90;;;;;;4960671;28;20106;-53
2021/08/16 08:29:41;;;;;;;3.38;2.25;;;16.10;99.90;;;;;;4962353;28;20042;-48
2021/08/16 08:32:07;;;;;;;5.18;2.40;;;16.10;99.90;;;;;;4953519;28;20031;-49
2021/08/16 08:34:33;;;;;;;4.10;2.75;;;16.00;99.90;;;;;;4945921;28;20030;-49
2021/08/16 08:36:59;;;;;;;4.63;2.70;;;16.00;99.90;;;;;;4956118;28;20031;-47
2021/08/16 08:39:25;;;;;;;5.32;2.50;;;16.00;99.90;;;;;;4962023;28;20078;-50
2021/08/16 08:41:56;;;;;;;3.80;2.70;;;16.00;99.90;;;;;;4967875;28;20023;-49
2021/08/16 08:44:22;;;;;;;6.40;3.67;;;16.00;99.90;;;;;;4959017;28;20030;-46
2021/08/16 08:46:48;;;;;;;5.57;3.72;;;16.00;99.90;;;;;;4954848;28;20035;-49
2021/08/16 08:49:14;;;;;;;6.47;3.97;;;16.00;99.90;;;;;;4959454;28;20093;-48
2021/08/16 08:51:41;;;;;;;6.13;4.18;;;16.00;99.90;;;;;;4951282;28;20073;-48
2021/08/16 08:54:07;;;;;;;7.03;4.45;;;16.10;99.90;;;;;;4964971;28;20097;-48
2021/08/16 08:56:33;;;;;;;8.35;4.28;;;16.10;99.90;;;;;;4957115;28;20563;-47
2021/08/16 08:58:59;;;;;;;5.90;4.20;;;16.10;99.90;;;;;;4965896;28;20031;-48
2021/08/16 09:01:25;;;;;;;11.27;5.65;;;16.30;99.90;;;;;;4960469;28;20070;-48
2021/08/16 09:03:53;;;;;;;8.65;5.95;;;16.70;99.90;;;;;;4959860;28;20444;-52
2021/08/16 09:06:40;;;;;;;9.43;6.22;;;16.90;99.90;;;;;;4954801;28;20018;-50
2021/08/16 09:09:07;;;;;;;8.82;5.30;;;16.90;99.90;;;;;;4963593;28;20026;-48
2021/08/16 09:11:33;;;;;;;9.10;4.95;;;17.00;99.90;;;;;;4963868;28;20023;-53
2021/08/16 09:14:05;;;;;;;7.63;5.25;;;17.00;99.90;;;;;;4957065;28;20058;-51
2021/08/16 09:16:35;;;;;;;15.35;6.32;;;17.00;99.90;;;;;;4967017;28;20376;-51
2021/08/16 09:19:17;;;;;;;7.65;5.07;;;17.00;99.90;;;;;;4958105;28;20023;-48
2021/08/16 09:21:47;;;;;;;8.98;5.03;;;16.90;99.90;;;;;;4963841;28;20041;-51
2021/08/16 09:24:13;;;;;;;10.85;5.50;;;16.90;99.90;;;;;;4958964;28;20027;-49
2021/08/16 09:26:43;;;;;;;7.20;5.15;;;16.80;99.90;;;;;;4965152;28;20023;-50
2021/08/16 09:29:12;;;;;;;8.73;5.05;;;16.80;99.90;;;;;;4961475;28;20027;-46
2021/08/16 09:31:49;;;;;;;9.48;5.32;;;16.80;99.90;;;;;;4959625;28;20033;-48
2021/08/16 09:34:25;;;;;;;9.52;6.03;;;16.80;99.90;;;;;;4963528;28;20019;-48
2021/08/16 09:36:51;;;;;;;7.38;6.22;;;16.80;99.90;;;;;;4958683;28;20054;-48
2021/08/16 09:39:21;;;;;;;8.40;5.88;;;16.80;99.90;;;;;;4960751;28;20066;-49
2021/08/16 09:41:47;;;;;;;8.30;5.93;;;16.80;99.90;;;;;;4966092;28;20529;-48
2021/08/16 09:44:14;;;;;;;13.25;7.75;;;16.80;99.90;;;;;;4961139;28;20026;-51
2021/08/16 09:46:41;;;;;;;9.57;6.25;;;16.80;99.90;;;;;;4965270;28;20712;-49
2021/08/16 09:49:07;;;;;;;7.55;5.75;;;16.70;99.90;;;;;;4961602;28;20112;-47
2021/08/16 09:51:36;;;;;;;7.65;6.80;;;16.60;99.90;;;;;;4965791;28;20019;-49
2021/08/16 09:54:02;;;;;;;9.15;5.75;;;16.60;99.90;;;;;;4962946;28;20054;-52
2021/08/16 09:56:29;;;;;;;5.95;5.07;;;16.60;99.90;;;;;;4958887;28;20058;-48
2021/08/16 09:58:55;;;;;;;8.23;5.78;;;16.60;99.90;;;;;;4967130;28;20054;-51
2021/08/16 10:01:21;;;;;;;6.45;5.32;;;16.60;99.90;;;;;;4960259;28;20057;-48
2021/08/16 10:03:47;;;;;;;8.32;4.85;;;16.60;99.90;;;;;;4965452;28;20050;-51
2021/08/16 10:06:15;;;;;;;7.03;4.50;;;16.60;99.90;;;;;;4960940;28;20450;-49
2021/08/16 10:08:52;;;;;;;4.80;4.40;;;16.60;99.90;;;;;;4962472;28;20629;-53
2021/08/16 10:11:19;;;;;;;7.25;5.00;;;16.60;99.90;;;;;;4959009;28;20078;-52
2021/08/16 10:13:51;;;;;;;5.10;4.15;;;16.60;99.90;;;;;;4960050;28;20023;-54
2021/08/16 10:16:20;;;;;;;3.65;3.00;;;16.60;99.90;;;;;;4966095;28;20023;-53
2021/08/16 10:18:55;;;;;;;7.65;3.60;;;16.50;99.90;;;;;;4955034;28;20023;-52
2021/08/16 10:21:22;;;;;;;3.92;3.50;;;16.60;99.90;;;;;;4953820;28;20019;-54
2021/08/16 10:23:53;;;;;;;5.55;3.33;;;16.60;99.90;;;;;;4959704;28;20390;-54
2021/08/16 10:26:31;;;;;;;7.57;3.60;;;16.60;99.90;;;;;;4951739;28;20438;-54
2021/08/16 10:28:59;;;;;;;4.03;3.60;;;16.60;99.90;;;;;;4963925;28;20574;-53
2021/08/16 10:31:27;;;;;;;6.28;3.17;;;16.60;99.90;;;;;;4973911;23;20411;-85
2021/08/16 10:33:55;;;;;;;4.13;3.17;;;16.70;99.90;;;;;;4971125;28;20023;-86
2021/08/16 10:36:22;;;;;;;4.30;3.47;;;16.70;99.90;;;;;;4956985;28;20055;-85
2021/08/16 10:39:02;;;;;;;5.10;3.50;;;16.70;99.90;;;;;;4970740;28;20033;-86
2021/08/16 10:41:39;;;;;;;3.90;3.20;;;16.80;99.90;;;;;;4961302;28;20022;-83
2021/08/16 10:44:13;;;;;;;4.55;3.42;;;16.70;99.90;;;;;;4965740;28;20058;-86
2021/08/16 10:46:39;;;;;;;4.82;3.42;;;16.70;99.90;;;;;;4968831;28;20026;-87
2021/08/16 10:49:07;;;;;;;3.85;3.30;;;16.70;99.90;;;;;;4958468;28;20514;-85
2021/08/16 10:51:41;;;;;;;7.00;3.42;;;16.70;99.90;;;;;;4966888;28;20031;-85
2021/08/16 10:54:07;;;;;;;4.63;3.30;;;16.70;99.90;;;;;;4969702;28;20019;-85
2021/08/16 10:56:33;;;;;;;4.22;3.08;;;16.70;99.90;;;;;;4974702;28;20071;-87
2021/08/16 10:59:01;;;;;;;3.85;2.80;;;16.70;99.90;;;;;;4971176;28;20062;-85
2021/08/16 11:01:32;;;;;;;4.35;3.05;;;16.70;99.90;;;;;;4952576;28;20059;-86
2021/08/16 11:04:03;;;;;;;4.25;2.40;;;16.70;99.90;;;;;;4960684;28;20026;-87
2021/08/16 11:06:29;;;;;;;3.78;2.13;;;16.70;99.90;;;;;;4968736;28;20027;-90
2021/08/16 11:09:00;;;;;;;1.73;1.63;;;16.60;99.90;;;;;;4974138;28;20692;-86
2021/08/16 11:11:29;;;;;;;3.45;2.50;;;16.60;99.90;;;;;;4947866;28;20453;-86
2021/08/16 11:14:24;;;;;;;2.38;2.15;;;16.60;99.90;;;;;;4964397;28;20023;-86
2021/08/16 11:16:52;;;;;;;2.88;1.90;;;16.50;99.90;;;;;;4966267;28;20027;-87
2021/08/16 11:19:18;;;;;;;2.33;1.83;;;16.50;99.90;;;;;;4955431;28;20150;-87
2021/08/16 11:21:59;;;;;;;2.00;1.33;;;16.50;99.90;;;;;;4966091;28;20054;-86
2021/08/16 11:24:36;;;;;;;3.30;1.50;;;16.30;99.90;;;;;;4954669;28;20117;-86
2021/08/16 11:27:08;;;;;;;2.22;1.50;;;16.30;99.90;;;;;;4965888;28;20025;-86
2021/08/16 11:29:37;;;;;;;3.88;2.03;;;16.30;99.90;;;;;;4975077;28;20050;-86
2021/08/16 11:32:04;;;;;;;3.00;1.52;;;16.30;99.90;;;;;;4972537;28;20031;-85
2021/08/16 11:34:31;;;;;;;2.72;1.55;;;16.40;99.90;;;;;;4954418;28;20364;-87
2021/08/16 11:36:57;;;;;;;4.28;1.90;;;16.40;99.90;;;;;;4955227;28;20043;-86
2021/08/16 11:39:31;;;;;;;2.25;1.50;;;16.50;99.90;;;;;;4969070;28;20027;-86
2021/08/16 11:42:01;;;;;;;2.38;1.90;;;16.40;99.90;;;;;;4953255;29;20557;-87
2021/08/16 11:44:28;;;;;;;2.20;1.70;;;16.50;99.90;;;;;;4966694;28;20035;-85
2021/08/16 11:47:01;;;;;;;2.33;2.00;;;16.50;99.90;;;;;;4961005;28;20057;-84
2021/08/16 11:49:32;;;;;;;3.03;2.15;;;16.40;99.90;;;;;;4969715;28;20053;-86
2021/08/16 11:51:57;;;;;;;1.83;1.73;;;16.50;99.90;;;;;;4972789;28;20037;-87
2021/08/16 11:54:28;;;;;;;8.75;4.38;;;16.50;99.90;;;;;;4964363;28;20019;-87
2021/08/16 11:56:59;;;;;;;2.70;2.30;;;16.50;99.90;;;;;;4965499;28;20051;-86
2021/08/16 11:59:26;;;;;;;3.08;1.88;;;16.50;99.90;;;;;;4961766;28;20238;-87
2021/08/16 12:01:54;;;;;;;2.42;2.03;;;16.50;99.90;;;;;;4959124;28;20023;-86
2021/08/16 12:04:21;;;;;;;5.57;2.10;;;16.40;99.90;;;;;;4968013;28;20027;-86
2021/08/16 12:06:53;;;;;;;4.75;2.00;;;16.40;99.90;;;;;;4951884;28;20433;-86
2021/08/16 12:09:19;;;;;;;3.70;2.10;;;16.30;99.90;;;;;;4964540;28;20100;-88
2021/08/16 12:12:00;;;;;;;4.95;1.73;;;16.30;99.90;;;;;;4960213;28;20051;-86
2021/08/16 12:14:30;;;;;;;4.90;2.30;;;16.30;99.90;;;;;;4951925;28;20026;-87
2021/08/16 12:16:57;;;;;;;2.50;1.58;;;16.30;99.90;;;;;;4960262;28;20031;-87
2021/08/16 12:19:23;;;;;;;3.50;1.88;;;16.20;99.90;;;;;;4952060;28;20059;-88
2021/08/16 12:22:10;;;;;;;2.65;1.73;;;16.20;99.90;;;;;;4964035;28;20074;-88
2021/08/16 12:24:37;;;;;;;3.58;1.52;;;16.10;99.90;;;;;;4948773;29;20027;-90
2021/08/16 12:27:08;;;;;;;4.93;1.90;;;16.00;99.90;;;;;;4974181;28;20027;-88
2021/08/16 12:29:46;;;;;;;2.97;1.75;;;16.00;99.90;;;;;;4969492;28;20073;-88
2021/08/16 12:32:20;;;;;;;1.90;1.70;;;15.90;99.90;;;;;;4956668;28;20490;-86
2021/08/16 12:34:47;;;;;;;5.78;2.17;;;15.90;99.90;;;;;;4964744;28;20034;-88
2021/08/16 12:37:29;;;;;;;6.28;2.78;;;15.80;99.90;;;;;;4954465;28;20024;-89
2021/08/16 12:40:22;;;;;;;3.50;2.17;;;15.80;99.90;;;;;;4958351;28;20487;-87
2021/08/16 12:43:01;;;;;;;3.60;1.63;;;15.70;99.90;;;;;;4953905;28;20083;-88